createdAt,value
2017-12-26T00:02:17.966Z,32.37
2017-12-26T00:04:46.981Z,34.70
2017-12-26T00:07:16.815Z,30.57
2017-12-26T00:09:45.306Z,37.23
2017-12-26T00:12:13.611Z,36.50
2017-12-26T00:14:41.862Z,34.37
2017-12-26T00:17:10.235Z,35.63
2017-12-26T00:19:38.506Z,37.97
2017-12-26T00:22:06.750Z,33.77
2017-12-26T00:24:35.027Z,34.73
2017-12-26T00:27:04.046Z,36.10
2017-12-26T00:29:32.294Z,33.33
2017-12-26T00:32:01.650Z,32.43
2017-12-26T00:34:29.898Z,35.90
2017-12-26T00:36:58.382Z,33.57
2017-12-26T00:39:27.111Z,29.93
2017-12-26T00:41:55.362Z,38.07
2017-12-26T00:44:23.602Z,30.97
2017-12-26T00:46:51.884Z,33.97
2017-12-26T00:49:20.178Z,35.83
2017-12-26T00:51:48.513Z,33.63
2017-12-26T00:54:16.866Z,32.97
2017-12-26T00:56:45.113Z,36.80
2017-12-26T00:59:13.362Z,31.57
2017-12-26T01:01:41.638Z,33.57
2017-12-26T01:04:10.709Z,33.63
2017-12-26T01:06:38.946Z,32.30
2017-12-26T01:09:07.756Z,33.53
2017-12-26T01:11:35.990Z,33.37
2017-12-26T01:14:04.266Z,32.53
2017-12-26T01:16:32.784Z,31.83
2017-12-26T01:19:01.041Z,35.00
2017-12-26T01:21:29.283Z,32.57
2017-12-26T01:23:58.325Z,31.83
2017-12-26T01:26:26.562Z,41.60
2017-12-26T01:28:55.582Z,34.50
2017-12-26T01:31:23.901Z,32.83
2017-12-26T01:33:52.098Z,32.43
2017-12-26T01:36:21.266Z,31.73
2017-12-26T01:38:49.875Z,29.60
2017-12-26T01:41:18.343Z,33.13
2017-12-26T01:43:46.591Z,34.73
2017-12-26T01:46:23.676Z,31.90
2017-12-26T01:48:51.926Z,32.30
2017-12-26T01:51:21.374Z,30.17
2017-12-26T01:53:49.653Z,35.17
2017-12-26T01:56:17.907Z,32.00
2017-12-26T01:58:46.200Z,31.80
2017-12-26T02:01:15.434Z,34.90
2017-12-26T02:03:43.679Z,35.87
2017-12-26T02:06:11.954Z,37.33
2017-12-26T02:08:40.394Z,37.60
2017-12-26T02:11:10.942Z,35.00
2017-12-26T02:13:39.179Z,33.80
2017-12-26T02:16:07.450Z,34.37
2017-12-26T02:18:36.466Z,35.10
2017-12-26T02:21:04.715Z,35.03
2017-12-26T02:23:33.826Z,35.57
2017-12-26T02:26:02.070Z,33.03
2017-12-26T02:28:30.323Z,33.20
2017-12-26T02:30:58.623Z,32.90
2017-12-26T02:33:26.869Z,35.33
2017-12-26T02:35:55.115Z,33.43
2017-12-26T02:38:23.386Z,37.37
2017-12-26T02:40:53.574Z,35.13
2017-12-26T02:43:21.818Z,34.37
2017-12-26T02:45:50.158Z,35.00
2017-12-26T02:48:19.171Z,35.07
2017-12-26T02:50:47.425Z,34.10
2017-12-26T02:53:16.463Z,35.27
2017-12-26T02:55:44.762Z,32.67
2017-12-26T02:58:13.014Z,38.57
2017-12-26T03:00:41.286Z,31.80
2017-12-26T03:03:09.530Z,31.00
2017-12-26T03:05:37.853Z,34.10
2017-12-26T03:08:06.974Z,36.03
2017-12-26T03:10:35.350Z,38.87
2017-12-26T03:13:04.038Z,39.33
2017-12-26T03:15:32.306Z,34.73
2017-12-26T03:18:00.566Z,33.93
2017-12-26T03:20:28.822Z,35.17
2017-12-26T03:22:57.086Z,32.53
2017-12-26T03:25:25.339Z,29.00
2017-12-26T03:27:54.354Z,31.03
2017-12-26T03:30:22.839Z,29.77
2017-12-26T03:32:51.260Z,33.63
2017-12-26T03:35:19.482Z,32.13
2017-12-26T03:37:48.524Z,33.37
2017-12-26T03:40:16.774Z,34.30
2017-12-26T03:42:45.036Z,30.53
2017-12-26T03:45:14.218Z,34.40
2017-12-26T03:47:43.234Z,32.57
2017-12-26T03:50:11.493Z,35.77
2017-12-26T03:52:40.591Z,35.07
2017-12-26T03:55:09.611Z,35.03
2017-12-26T03:57:37.881Z,33.20
2017-12-26T04:00:06.163Z,32.57
2017-12-26T04:02:34.429Z,34.27
2017-12-26T04:05:02.766Z,32.57
2017-12-26T04:07:31.047Z,33.80
2017-12-26T04:09:59.518Z,30.37
2017-12-26T04:12:27.898Z,35.57
2017-12-26T04:14:57.095Z,33.83
2017-12-26T04:17:25.337Z,29.67
2017-12-26T04:19:53.654Z,30.50
2017-12-26T04:22:21.935Z,37.10
2017-12-26T04:24:50.178Z,31.53
2017-12-26T04:27:18.434Z,34.03
2017-12-26T04:29:46.713Z,29.53
2017-12-26T04:32:14.970Z,30.07
2017-12-26T04:34:44.266Z,32.33
2017-12-26T04:37:13.394Z,31.47
2017-12-26T04:39:41.638Z,33.63
2017-12-26T04:42:10.662Z,30.13
2017-12-26T04:44:38.930Z,33.27
2017-12-26T04:47:07.216Z,28.53
2017-12-26T04:49:35.486Z,29.90
2017-12-26T04:52:03.762Z,29.80
2017-12-26T04:54:32.194Z,33.23
2017-12-26T04:57:00.442Z,32.10
2017-12-26T04:59:30.062Z,31.43
2017-12-26T05:01:58.298Z,31.20
2017-12-26T05:04:26.586Z,33.37
2017-12-26T05:06:54.982Z,33.53
2017-12-26T05:09:25.230Z,27.97
2017-12-26T05:11:53.669Z,30.10
2017-12-26T05:14:22.015Z,35.53
2017-12-26T05:16:51.214Z,32.53
2017-12-26T05:19:19.457Z,30.57
2017-12-26T05:21:47.814Z,29.63
2017-12-26T05:24:16.122Z,29.53
2017-12-26T05:26:44.370Z,33.40
2017-12-26T05:29:12.779Z,30.43
2017-12-26T05:31:41.034Z,30.87
2017-12-26T05:34:09.278Z,33.40
2017-12-26T05:36:37.742Z,33.00
2017-12-26T05:39:06.758Z,31.43
2017-12-26T05:41:35.058Z,33.33
2017-12-26T05:44:03.422Z,30.77
2017-12-26T05:46:31.666Z,30.53
2017-12-26T05:49:00.686Z,28.83
2017-12-26T05:51:28.957Z,27.63
2017-12-26T05:53:57.231Z,30.10
2017-12-26T05:56:25.666Z,27.43
2017-12-26T05:58:53.942Z,27.07
2017-12-26T06:01:22.204Z,26.77
2017-12-26T06:03:50.494Z,28.23
2017-12-26T06:06:18.979Z,29.27
2017-12-26T06:08:47.302Z,28.30
2017-12-26T06:11:15.534Z,30.10
2017-12-26T06:13:43.875Z,26.03
2017-12-26T06:16:12.123Z,29.50
2017-12-26T06:18:41.229Z,28.17
2017-12-26T06:21:10.710Z,27.30
2017-12-26T06:23:39.738Z,31.60
2017-12-26T06:26:11.510Z,28.80
2017-12-26T06:28:39.771Z,26.70
2017-12-26T06:31:08.023Z,33.03
2017-12-26T06:33:37.225Z,30.57
2017-12-26T06:36:06.277Z,28.43
2017-12-26T06:38:34.518Z,34.10
2017-12-26T06:41:02.971Z,30.10
2017-12-26T06:43:32.070Z,32.43
2017-12-26T06:46:01.082Z,31.43
2017-12-26T06:48:31.043Z,31.97
2017-12-26T06:50:59.286Z,28.23
2017-12-26T06:53:27.534Z,30.03
2017-12-26T06:55:57.885Z,26.60
2017-12-26T06:58:26.194Z,27.77
2017-12-26T07:00:54.446Z,31.43
2017-12-26T07:03:22.718Z,27.50
2017-12-26T07:05:53.194Z,29.60
2017-12-26T07:08:23.842Z,33.50
2017-12-26T07:10:52.912Z,29.30
2017-12-26T07:13:22.324Z,29.20
2017-12-26T07:15:50.595Z,30.37
2017-12-26T07:18:18.861Z,30.70
2017-12-26T07:20:52.871Z,28.47
2017-12-26T07:23:21.094Z,30.90
2017-12-26T07:25:50.111Z,31.33
2017-12-26T07:28:18.813Z,30.70
2017-12-26T07:30:47.071Z,28.67
2017-12-26T07:33:15.358Z,30.40
2017-12-26T07:35:43.626Z,35.30
2017-12-26T07:38:11.894Z,31.60
2017-12-26T07:40:40.326Z,26.67
2017-12-26T07:43:08.638Z,27.00
2017-12-26T07:45:37.074Z,33.03
2017-12-26T07:48:05.318Z,29.73
2017-12-26T07:50:33.671Z,31.20
2017-12-26T07:53:01.905Z,31.33
2017-12-26T07:55:30.146Z,29.37
2017-12-26T07:57:58.561Z,30.17
2017-12-26T08:00:27.594Z,35.57
2017-12-26T08:02:55.847Z,24.53
2017-12-26T08:05:24.150Z,26.93
2017-12-26T08:07:53.170Z,34.47
2017-12-26T08:10:21.427Z,42.93
2017-12-26T08:12:50.238Z,33.43
2017-12-26T08:15:18.493Z,33.93
2017-12-26T08:17:47.506Z,29.73
2017-12-26T08:20:15.786Z,27.60
2017-12-26T08:22:44.502Z,26.63
2017-12-26T08:25:12.723Z,31.07
2017-12-26T08:27:41.758Z,29.20
2017-12-26T08:30:10.012Z,30.03
2017-12-26T08:32:38.262Z,29.53
2017-12-26T08:35:07.438Z,25.53
2017-12-26T08:37:35.682Z,31.97
2017-12-26T08:40:03.946Z,36.93
2017-12-26T08:42:32.238Z,32.77
2017-12-26T08:45:00.643Z,73.20
2017-12-26T08:47:29.946Z,38.17
2017-12-26T08:49:59.383Z,33.13
2017-12-26T08:52:28.860Z,25.23
2017-12-26T08:54:57.135Z,27.73
2017-12-26T08:57:25.686Z,21.30
2017-12-26T08:59:53.946Z,24.83
2017-12-26T09:02:22.375Z,24.10
2017-12-26T09:04:53.854Z,23.60
2017-12-26T09:07:22.878Z,23.13
2017-12-26T09:09:52.118Z,21.10
2017-12-26T09:12:20.674Z,20.20
2017-12-26T09:14:51.030Z,17.80
2017-12-26T09:17:19.311Z,21.93
2017-12-26T09:19:47.876Z,27.03
2017-12-26T09:22:16.123Z,24.20
2017-12-26T09:24:44.558Z,23.30
2017-12-26T09:27:12.958Z,23.70
2017-12-26T09:29:41.977Z,23.87
2017-12-26T09:32:10.226Z,21.23
2017-12-26T09:34:38.705Z,19.77
2017-12-26T09:37:07.727Z,19.13
2017-12-26T09:39:36.974Z,20.60
2017-12-26T09:42:05.734Z,21.00
2017-12-26T09:44:34.035Z,24.03
2017-12-26T09:47:03.334Z,27.80
2017-12-26T09:49:35.434Z,24.20
2017-12-26T09:52:04.562Z,22.90
2017-12-26T09:54:32.809Z,23.07
2017-12-26T09:57:02.106Z,23.43
2017-12-26T09:59:31.126Z,23.87
2017-12-26T10:01:59.450Z,24.57
2017-12-26T10:04:27.782Z,19.43
2017-12-26T10:06:56.034Z,19.57
2017-12-26T10:09:24.294Z,17.80
2017-12-26T10:11:52.677Z,18.73
2017-12-26T10:14:21.079Z,18.13
2017-12-26T10:16:50.086Z,15.10
2017-12-26T10:19:18.366Z,20.67
2017-12-26T10:21:46.798Z,18.17
2017-12-26T10:24:15.668Z,19.37
2017-12-26T10:26:45.187Z,23.77
2017-12-26T10:29:15.650Z,21.40
2017-12-26T10:31:43.942Z,21.20
2017-12-26T10:34:12.403Z,19.90
2017-12-26T10:36:41.436Z,19.37
2017-12-26T10:39:10.383Z,21.63
2017-12-26T10:41:38.774Z,27.60
2017-12-26T10:44:07.821Z,27.03
2017-12-26T10:46:36.111Z,25.20
2017-12-26T10:49:04.613Z,26.63
2017-12-26T10:51:32.866Z,23.27
2017-12-26T10:54:01.254Z,22.00
2017-12-26T10:56:29.661Z,26.90
2017-12-26T10:58:58.722Z,18.90
2017-12-26T11:01:27.958Z,21.43
2017-12-26T11:03:57.040Z,22.57
2017-12-26T11:06:25.448Z,18.60
2017-12-26T11:08:53.678Z,18.13
2017-12-26T11:11:23.196Z,19.77
2017-12-26T11:13:54.119Z,17.50
2017-12-26T11:16:22.530Z,20.70
2017-12-26T11:18:51.583Z,22.13
2017-12-26T11:21:20.571Z,21.40
2017-12-26T11:23:48.899Z,20.87
2017-12-26T11:26:18.506Z,22.07
2017-12-26T11:28:47.771Z,20.20
2017-12-26T11:31:16.022Z,20.13
2017-12-26T11:33:44.359Z,25.50
2017-12-26T11:36:12.606Z,23.07
2017-12-26T11:38:41.035Z,25.47
2017-12-26T11:41:09.419Z,22.50
2017-12-26T11:43:38.663Z,20.20
2017-12-26T11:46:07.042Z,18.63
2017-12-26T11:48:35.667Z,19.80
2017-12-26T11:51:03.979Z,21.97
2017-12-26T11:53:33.406Z,17.50
2017-12-26T11:56:03.732Z,11.47
2017-12-26T11:58:32.335Z,11.17
2017-12-26T12:01:00.616Z,7.70
2017-12-26T12:03:28.903Z,5.13
2017-12-26T12:06:02.063Z,7.30
2017-12-26T12:08:30.347Z,4.27
2017-12-26T12:10:58.818Z,3.20
2017-12-26T12:13:27.262Z,2.97
2017-12-26T12:15:55.654Z,2.00
2017-12-26T12:18:23.995Z,1.90
2017-12-26T12:20:54.186Z,1.90
2017-12-26T12:23:23.533Z,1.70
2017-12-26T12:25:52.532Z,2.73
2017-12-26T12:28:21.131Z,1.97
2017-12-26T12:30:49.570Z,2.30
2017-12-26T12:33:18.639Z,1.50
2017-12-26T12:35:46.911Z,2.07
2017-12-26T12:38:16.407Z,2.00
2017-12-26T12:40:46.738Z,1.43
2017-12-26T12:43:14.975Z,2.83
2017-12-26T12:45:43.258Z,1.23
2017-12-26T12:48:11.767Z,2.10
2017-12-26T12:50:40.907Z,1.40
2017-12-26T12:53:09.935Z,1.27
2017-12-26T12:55:38.174Z,1.13
2017-12-26T12:58:06.419Z,1.63
2017-12-26T13:00:34.935Z,1.70
2017-12-26T13:03:03.179Z,1.63
2017-12-26T13:05:31.459Z,1.20
2017-12-26T13:07:59.867Z,1.00
2017-12-26T13:10:34.971Z,1.90
2017-12-26T13:13:03.255Z,1.20
2017-12-26T13:15:31.514Z,2.30
2017-12-26T13:17:59.802Z,1.20
2017-12-26T13:20:28.117Z,1.10
2017-12-26T13:22:56.567Z,1.37
2017-12-26T13:25:24.963Z,0.93
2017-12-26T13:27:53.226Z,1.13
2017-12-26T13:30:21.483Z,7.50
2017-12-26T13:32:49.771Z,2.10
2017-12-26T13:35:18.310Z,1.03
2017-12-26T13:37:46.671Z,1.10
2017-12-26T13:40:14.911Z,1.70
2017-12-26T13:42:43.687Z,1.23
2017-12-26T13:45:11.976Z,1.90
2017-12-26T13:47:40.343Z,1.20
2017-12-26T13:50:08.602Z,1.03
2017-12-26T13:52:38.034Z,0.93
2017-12-26T13:55:06.304Z,0.90
2017-12-26T13:57:34.546Z,1.03
2017-12-26T14:00:02.797Z,1.93
2017-12-26T14:02:31.038Z,1.10
2017-12-26T14:04:59.698Z,0.90
2017-12-26T14:07:28.006Z,2.60
2017-12-26T14:09:56.382Z,1.10
2017-12-26T14:12:24.872Z,0.87
2017-12-26T14:14:54.370Z,0.90
2017-12-26T14:17:22.769Z,1.63
2017-12-26T14:19:51.324Z,1.17
2017-12-26T14:22:19.544Z,0.80
2017-12-26T14:24:48.562Z,1.00
2017-12-26T14:27:18.183Z,1.00
2017-12-26T14:29:47.442Z,1.23
2017-12-26T14:32:16.799Z,0.90
2017-12-26T14:34:45.063Z,1.10
2017-12-26T14:37:13.314Z,1.30
2017-12-26T14:39:41.546Z,1.10
2017-12-26T14:42:09.950Z,1.43
2017-12-26T14:44:38.950Z,0.90
2017-12-26T14:47:07.961Z,1.00
2017-12-26T14:49:36.793Z,1.83
2017-12-26T14:52:05.011Z,0.90
2017-12-26T14:54:34.014Z,1.87
2017-12-26T14:57:02.380Z,1.10
2017-12-26T14:59:31.387Z,3.63
2017-12-26T15:01:59.619Z,9.23
2017-12-26T15:04:27.894Z,1.30
2017-12-26T15:06:58.336Z,1.30
2017-12-26T15:09:26.716Z,0.90
2017-12-26T15:11:55.186Z,1.10
2017-12-26T15:14:23.445Z,1.73
2017-12-26T15:16:51.838Z,4.03
2017-12-26T15:19:20.107Z,1.17
2017-12-26T15:21:48.382Z,1.33
2017-12-26T15:24:16.598Z,1.10
2017-12-26T15:26:44.879Z,1.40
2017-12-26T15:29:14.353Z,1.53
2017-12-26T15:31:42.582Z,1.50
2017-12-26T15:34:10.893Z,1.20
2017-12-26T15:36:39.135Z,0.93
2017-12-26T15:39:07.562Z,2.10
2017-12-26T15:41:35.827Z,1.40
2017-12-26T15:44:04.066Z,1.67
2017-12-26T15:46:32.567Z,1.77
2017-12-26T15:49:00.807Z,1.80
2017-12-26T15:51:29.857Z,2.00
2017-12-26T15:53:58.074Z,2.10
2017-12-26T15:56:26.682Z,2.40
2017-12-26T15:58:54.931Z,3.00
2017-12-26T16:01:23.931Z,2.67
2017-12-26T16:03:55.380Z,4.10
2017-12-26T16:06:24.378Z,1.77
2017-12-26T16:08:53.394Z,1.67
2017-12-26T16:11:23.942Z,1.87
2017-12-26T16:13:53.366Z,1.53
2017-12-26T16:16:21.603Z,1.13
2017-12-26T16:18:50.009Z,1.20
2017-12-26T16:21:18.264Z,5.07
2017-12-26T16:23:47.602Z,1.20
2017-12-26T16:26:16.006Z,1.57
2017-12-26T16:28:45.011Z,2.90
2017-12-26T16:31:14.026Z,2.10
2017-12-26T16:33:42.482Z,1.20
2017-12-26T16:36:17.382Z,4.37
2017-12-26T16:38:45.785Z,1.60
2017-12-26T16:41:14.038Z,1.83
2017-12-26T16:43:42.307Z,1.83
2017-12-26T16:46:10.567Z,1.60
2017-12-26T16:48:38.802Z,2.43
2017-12-26T16:51:07.819Z,1.73
2017-12-26T16:53:36.419Z,2.50
2017-12-26T16:56:04.657Z,2.23
2017-12-26T16:58:33.657Z,1.60
2017-12-26T17:01:02.894Z,1.37
2017-12-26T17:03:31.128Z,4.10
2017-12-26T17:05:59.372Z,1.53
2017-12-26T17:08:27.632Z,1.57
2017-12-26T17:10:55.883Z,2.23
2017-12-26T17:13:24.131Z,1.90
2017-12-26T17:15:53.167Z,1.80
2017-12-26T17:18:21.403Z,1.40
2017-12-26T17:20:49.646Z,1.30
2017-12-26T17:23:17.953Z,1.43
2017-12-26T17:25:46.960Z,1.33
2017-12-26T17:28:15.193Z,1.50
2017-12-26T17:30:43.450Z,1.17
2017-12-26T17:33:11.693Z,1.30
2017-12-26T17:35:40.587Z,1.40
2017-12-26T17:38:08.837Z,1.40
2017-12-26T17:40:37.839Z,2.93
2017-12-26T17:43:06.854Z,2.10
2017-12-26T17:45:35.662Z,3.70
2017-12-26T17:48:03.898Z,2.93
2017-12-26T17:50:32.908Z,1.60
2017-12-26T17:53:01.175Z,1.70
2017-12-26T17:55:29.406Z,2.00
2017-12-26T17:57:57.642Z,2.27
2017-12-26T18:00:25.910Z,9.93
2017-12-26T18:02:54.150Z,1.80
2017-12-26T18:05:23.498Z,1.43
2017-12-26T18:07:51.829Z,1.73
2017-12-26T18:10:20.198Z,2.93
2017-12-26T18:12:48.438Z,2.83
2017-12-26T18:15:16.706Z,2.10
2017-12-26T18:17:44.955Z,1.60
2017-12-26T18:20:13.197Z,1.40
2017-12-26T18:22:41.449Z,2.53
2017-12-26T18:25:09.683Z,1.30
2017-12-26T18:27:38.702Z,1.80
2017-12-26T18:30:07.253Z,1.63
2017-12-26T18:32:35.485Z,2.50
2017-12-26T18:35:03.725Z,1.60
2017-12-26T18:37:32.757Z,1.60
2017-12-26T18:40:00.993Z,1.70
2017-12-26T18:42:29.427Z,2.60
2017-12-26T18:44:57.693Z,2.83
2017-12-26T18:47:25.925Z,2.40
2017-12-26T18:49:54.937Z,1.40
2017-12-26T18:52:23.297Z,1.60
2017-12-26T18:54:53.474Z,4.20
2017-12-26T18:57:21.745Z,1.70
2017-12-26T18:59:49.986Z,1.70
2017-12-26T19:02:18.234Z,2.20
2017-12-26T19:04:46.465Z,2.07
2017-12-26T19:07:14.777Z,1.30
2017-12-26T19:09:43.024Z,2.30
2017-12-26T19:12:11.277Z,1.60
2017-12-26T19:14:40.505Z,1.90
2017-12-26T19:17:08.726Z,2.83
2017-12-26T19:19:37.734Z,1.93
2017-12-26T19:22:06.298Z,2.50
2017-12-26T19:24:35.301Z,2.27
2017-12-26T19:27:04.305Z,2.20
2017-12-26T19:29:32.565Z,1.43
2017-12-26T19:32:00.807Z,1.67
2017-12-26T19:34:29.085Z,5.20
2017-12-26T19:36:57.529Z,2.23
2017-12-26T19:39:25.977Z,1.73
2017-12-26T19:41:54.985Z,2.53
2017-12-26T19:44:24.029Z,2.30
2017-12-26T19:46:52.246Z,2.93
2017-12-26T19:49:21.265Z,3.57
2017-12-26T19:51:49.541Z,3.90
2017-12-26T19:54:17.761Z,2.93
2017-12-26T19:56:45.999Z,2.47
2017-12-26T19:59:14.345Z,5.43
2017-12-26T20:01:42.793Z,3.40
2017-12-26T20:04:11.089Z,2.73
2017-12-26T20:06:39.314Z,2.50
2017-12-26T20:09:11.613Z,4.73
2017-12-26T20:11:39.869Z,2.50
2017-12-26T20:14:08.106Z,3.40
2017-12-26T20:16:37.358Z,3.10
2017-12-26T20:19:05.938Z,2.97
2017-12-26T20:21:34.166Z,3.60
2017-12-26T20:24:03.302Z,2.60
2017-12-26T20:26:31.881Z,2.70
2017-12-26T20:29:00.117Z,3.07
2017-12-26T20:31:28.555Z,2.20
2017-12-26T20:33:56.833Z,2.93
2017-12-26T20:36:25.062Z,2.87
2017-12-26T20:38:54.066Z,2.90
2017-12-26T20:41:22.805Z,2.80
2017-12-26T20:43:51.041Z,3.10
2017-12-26T20:46:19.287Z,3.63
2017-12-26T20:48:48.314Z,6.37
2017-12-26T20:51:16.558Z,3.37
2017-12-26T20:53:45.578Z,3.23
2017-12-26T20:56:13.838Z,2.80
2017-12-26T20:58:42.073Z,2.93
2017-12-26T21:01:10.310Z,4.50
2017-12-26T21:03:38.806Z,2.30
2017-12-26T21:06:07.107Z,2.97
2017-12-26T21:08:35.341Z,3.57
2017-12-26T21:11:03.614Z,3.47
2017-12-26T21:13:31.859Z,3.37
2017-12-26T21:16:00.098Z,3.40
2017-12-26T21:18:28.358Z,4.30
2017-12-26T21:20:56.930Z,4.67
2017-12-26T21:23:25.910Z,3.83
2017-12-26T21:25:54.230Z,3.73
2017-12-26T21:28:22.470Z,4.07
2017-12-26T21:30:50.713Z,3.17
2017-12-26T21:33:18.973Z,4.00
2017-12-26T21:35:47.347Z,4.23
2017-12-26T21:38:15.581Z,5.67
2017-12-26T21:40:43.851Z,3.87
2017-12-26T21:43:13.002Z,3.10
2017-12-26T21:45:41.246Z,3.00
2017-12-26T21:48:09.658Z,2.60
2017-12-26T21:50:38.026Z,3.53
2017-12-26T21:53:06.246Z,4.90
2017-12-26T21:55:34.509Z,3.20
2017-12-26T21:58:03.514Z,3.13
2017-12-26T22:00:32.526Z,2.97
2017-12-26T22:03:00.786Z,2.93
2017-12-26T22:05:29.796Z,4.33
2017-12-26T22:07:59.043Z,7.20
2017-12-26T22:10:27.365Z,3.60
2017-12-26T22:12:55.610Z,2.87
2017-12-26T22:15:23.850Z,3.30
2017-12-26T22:17:52.109Z,3.40
2017-12-26T22:20:20.350Z,5.57
2017-12-26T22:22:49.358Z,3.40
2017-12-26T22:25:18.389Z,3.47
2017-12-26T22:27:51.598Z,3.87
2017-12-26T22:30:20.153Z,4.80
2017-12-26T22:32:48.389Z,3.60
2017-12-26T22:35:16.882Z,3.10
2017-12-26T22:37:45.905Z,3.37
2017-12-26T22:40:14.150Z,3.00
2017-12-26T22:42:43.153Z,3.33
2017-12-26T22:45:12.280Z,3.93
2017-12-26T22:47:40.522Z,3.30
2017-12-26T22:50:08.759Z,3.90
2017-12-26T22:52:37.314Z,3.57
2017-12-26T22:55:06.545Z,4.93
2017-12-26T22:57:34.786Z,4.77
2017-12-26T23:00:03.050Z,4.00
2017-12-26T23:02:31.285Z,4.00
2017-12-26T23:04:59.522Z,4.20
2017-12-26T23:07:27.846Z,5.07
2017-12-26T23:09:56.088Z,4.20
2017-12-26T23:12:24.321Z,4.03
2017-12-26T23:14:58.434Z,4.13
2017-12-26T23:17:32.403Z,7.43
2017-12-26T23:20:06.506Z,4.43
2017-12-26T23:22:34.747Z,3.90
2017-12-26T23:25:08.673Z,3.77
2017-12-26T23:27:42.529Z,3.83
2017-12-26T23:30:16.801Z,9.87
2017-12-26T23:32:50.722Z,4.27
2017-12-26T23:35:24.549Z,3.80
2017-12-26T23:37:58.352Z,3.80
2017-12-26T23:40:32.382Z,3.80
2017-12-26T23:43:06.322Z,3.67
2017-12-26T23:45:40.865Z,3.50
2017-12-26T23:48:14.622Z,4.10
2017-12-26T23:50:48.586Z,3.93
2017-12-26T23:53:22.565Z,4.17
2017-12-26T23:55:57.165Z,4.53
2017-12-26T23:58:30.993Z,4.50
